AGROMETEOROLOŠKI PORTAL

vinorodna pokrajina

Temelj dobrega kmetovanja

Pregled podatkov za lokacijo Dravinjski vrh, meteorološka postaja 42840

Pregled senzorjev na lokaciji

ID Ime Zadnja
vrednost
Datum in čas
meritve
(lokalni čas)
Tip
senzorja
4986 Omočenost lista (1,5 m) (U) 10 U 6.10.2022 05:30 A730WET
4993 Padavine (mm) 0 mm 6.10.2022 05:30 Generic 0.2 mm
4992 Relativna zračna vlaga (2 m) (%RH) 99 %RH 6.10.2022 05:30 50YA
4991 Temperatura (2 m) (°C) 11,1 °C 6.10.2022 05:30 50YA
5242 Smer vetra (3 m) (°) 341 ° 6.10.2022 05:30 Generic 0 - 360
5241 Hitrost vetra (3 m) (km/h) 3 km/h 6.10.2022 05:30 Generic 200 km/h

Pregled podatkov zadnjih 24 ur

Zap.
št.
Datum in čas
(lokalni čas)
Dravinjski vrh
Omočenost
lista
(1,5
m)
Padavine Relativna
zračna
vlaga
(2
m)
Temperatura
(2
m)
Smer
vetra
(3
m)
Hitrost
vetra
(3
m)
1 6.10.2022 05:30 10 0 98,5 11,1 340,6 2,8
2 6.10.2022 05:00 10 0 98,5 11,4 3,9 3
3 6.10.2022 04:30 10 0 98 11,3 145,2 2,4
4 6.10.2022 04:00 10 0 97 11,7 119,7 1,4
5 6.10.2022 03:30 10 0 94,7 11,7 140 0,2
6 6.10.2022 03:00 10 0 91,9 12,7 260,6 1,9
7 6.10.2022 02:30 10 0 90,6 12,9 250 3
8 6.10.2022 02:00 10 0 88,3 13,1 182,8 4,2
9 6.10.2022 01:30 8 0 85,9 13,5 197 5,5
10 6.10.2022 01:00 3 0 83,7 14 154,9 9,4
11 6.10.2022 00:30 3 0 83 14,1 157,9 7,7
12 6.10.2022 00:00 2 0 81,8 14 137,5 7
13 5.10.2022 23:30 1 0 78,8 14,5 166,2 6,9
14 5.10.2022 23:00 0 0 75,6 15,1 132,3 8,4
15 5.10.2022 22:30 0 0 73,8 15,5 156,2 10,8
16 5.10.2022 22:00 0 0 72,7 15,7 139,3 9,8
17 5.10.2022 21:30 0 0 71,7 15,8 151,3 11,9
18 5.10.2022 21:00 0 0 70,2 16,1 159,9 10,9
19 5.10.2022 20:30 0 0 69,1 16,4 149,9 11,1
20 5.10.2022 20:00 0 0 68,7 16,5 161,5 9,5
21 5.10.2022 19:30 0 0 68,9 16,5 160,5 8,8
22 5.10.2022 19:00 0 0 68,5 16,6 152,4 11,3
23 5.10.2022 18:30 0 0 67,7 17 163 10,4
24 5.10.2022 18:00 0 0 67,2 17,4 160,5 9,3
25 5.10.2022 17:30 0 0 66,1 18 141,1 7,8
26 5.10.2022 17:00 0 0 63,7 18,9 163,3 7,2
27 5.10.2022 16:30 0 0 63 19,2 129,1 9,8
28 5.10.2022 16:00 0 0 61,7 20,1 168,1 9,9
29 5.10.2022 15:30 0 0 61,9 19,8 165,5 11,1
30 5.10.2022 15:00 0 0 61,6 19,4 193,1 9,5
31 5.10.2022 14:30 0 0 62,4 18,9 198,3 9,9
32 5.10.2022 14:00 0 0 61,8 18,7 166,7 10,4
33 5.10.2022 13:30 0 0 62,3 18,4 185,3 10,4
34 5.10.2022 13:00 0 0 62 18,3 163,8 9,4
35 5.10.2022 12:30 0 0 61,3 17,9 148 9,7
36 5.10.2022 12:00 0 0 61,6 17,4 263,4 9,9
37 5.10.2022 11:30 0 0 63,2 16,7 164,6 9,9
38 5.10.2022 11:00 0 0 65,7 15,9 168,9 8,4
39 5.10.2022 10:30 0 0 67,9 15,2 175,5 8,5
40 5.10.2022 10:00 0 0 72,7 14,2 143,3 6,4
41 5.10.2022 09:30 1 0 77,1 12,7 146,3 5,5
42 5.10.2022 09:00 7 0 83,4 10,8 126 3,3
43 5.10.2022 08:30 10 0 84 10,2 166,4 4,7
44 5.10.2022 08:00 10 0 87 9,1 179,8 3,6
45 5.10.2022 07:30 10 0 91,5 8,2 147,7 2,7
46 5.10.2022 07:00 10 0 92,3 7,7 136,4 2,4